Time;durP1;ratioP1;P1;durP2;ratioP2;P2;SDS_P1;SDS_P2;PMS_P1;PMS_P2;Temp;Humidity;BMP_temperature;BMP_pressure;BME280_temperature;BME280_humidity;BME280_pressure;Samples;Min_cycle;Max_cycle;Signal;HPM_P1;HPM_P2
2022/04/26 03:37:32;;;;;;;7.70;6.38;;;;;;;7.26;89.74;101439.75;5117126;28;20465;-61
2022/04/26 03:39:58;;;;;;;10.98;6.75;;;;;;;7.44;89.80;101470.28;5099661;28;20036;-61
2022/04/26 03:42:23;;;;;;;8.50;6.25;;;;;;;7.42;89.44;101465.94;5117193;28;20411;-64
2022/04/26 03:44:48;;;;;;;10.27;6.57;;;;;;;7.33;90.32;101470.16;5117298;28;20038;-63
2022/04/26 03:47:13;;;;;;;10.65;6.90;;;;;;;7.40;90.32;101472.84;5117080;28;20092;-64
2022/04/26 03:49:39;;;;;;;8.30;6.45;;;;;;;7.41;90.09;101472.00;5113828;28;20062;-65
2022/04/26 03:52:05;;;;;;;12.40;6.50;;;;;;;7.30;91.05;101469.25;5117100;28;20043;-62
2022/04/26 03:54:30;;;;;;;8.95;5.95;;;;;;;7.35;91.30;101478.00;5113695;28;20421;-64
2022/04/26 03:56:55;;;;;;;10.10;6.45;;;;;;;7.31;91.30;101479.69;5117031;28;20027;-62
2022/04/26 03:59:20;;;;;;;10.75;6.95;;;;;;;7.28;91.64;101479.66;5116758;28;20030;-63
2022/04/26 04:01:47;;;;;;;10.98;6.55;;;;;;;7.27;92.03;101474.47;5116980;28;20055;-60
2022/04/26 04:04:12;;;;;;;10.63;6.50;;;;;;;7.29;92.36;101472.72;5116623;28;20122;-61
2022/04/26 04:06:38;;;;;;;9.10;6.93;;;;;;;7.32;92.22;101485.78;5116749;28;20428;-61
2022/04/26 04:09:03;;;;;;;10.15;7.13;;;;;;;7.30;92.28;101482.28;5116660;28;20358;-62
2022/04/26 04:11:29;;;;;;;12.60;7.00;;;;;;;7.35;92.53;101485.81;5116648;28;20046;-63
2022/04/26 04:13:54;;;;;;;11.80;6.75;;;;;;;7.36;92.24;101487.56;5116568;28;20057;-61
2022/04/26 04:16:20;;;;;;;10.45;7.18;;;;;;;7.43;92.73;101488.50;5116405;28;20069;-62
2022/04/26 04:21:30;;;;;;;11.18;6.95;;;;;;;7.41;92.78;101492.81;5116537;28;20047;-62
2022/04/26 04:23:55;;;;;;;11.05;7.30;;;;;;;7.39;93.06;101499.75;5116433;28;20346;-64
2022/04/26 04:26:20;;;;;;;14.85;7.68;;;;;;;7.43;92.72;101502.41;5116323;28;20024;-63
2022/04/26 04:28:45;;;;;;;13.38;7.60;;;;;;;7.39;93.01;101503.22;5116454;28;20363;-61
2022/04/26 04:31:11;;;;;;;11.02;7.50;;;;;;;7.44;92.95;101505.88;5116124;28;20028;-63
2022/04/26 04:33:37;;;;;;;13.57;7.35;;;;;;;7.33;93.12;101504.03;5116287;28;20028;-62
2022/04/26 04:36:03;;;;;;;11.27;6.80;;;;;;;7.39;92.85;101503.22;5116296;28;20043;-62
2022/04/26 04:38:28;;;;;;;11.85;7.22;;;;;;;7.36;93.28;101510.13;5115855;28;20038;-62
2022/04/26 04:40:54;;;;;;;11.60;7.13;;;;;;;7.35;93.30;101517.06;5116059;28;20031;-62
2022/04/26 04:43:19;;;;;;;11.57;7.35;;;;;;;7.31;93.73;101513.53;5115807;28;20027;-62
2022/04/26 04:45:45;;;;;;;10.95;7.30;;;;;;;7.37;93.64;101517.94;5116129;28;20103;-63
2022/04/26 04:48:10;;;;;;;12.88;7.50;;;;;;;7.36;93.49;101521.41;5116232;28;20107;-62
2022/04/26 04:50:36;;;;;;;9.43;7.55;;;;;;;7.39;94.12;101525.78;5116108;28;20028;-63
2022/04/26 04:53:01;;;;;;;12.88;7.55;;;;;;;7.41;93.61;101530.16;5115887;28;20074;-61
2022/04/26 04:55:27;;;;;;;12.65;6.93;;;;;;;7.37;93.98;101533.56;5116003;28;20047;-61
2022/04/26 04:57:52;;;;;;;11.80;7.38;;;;;;;7.40;93.90;101536.22;5097764;28;20067;-62
2022/04/26 05:00:18;;;;;;;11.50;8.27;;;;;;;7.45;93.99;101538.84;5115688;28;20074;-64
2022/04/26 05:02:43;;;;;;;10.77;7.07;;;;;;;7.39;93.84;101530.97;5107001;28;20119;-60
2022/04/26 05:05:09;;;;;;;11.60;8.13;;;;;;;7.44;93.89;101545.81;5077428;28;20421;-63
2022/04/26 05:07:35;;;;;;;10.85;7.28;;;;;;;7.46;94.14;101545.78;5095498;28;20042;-62
2022/04/26 05:10:01;;;;;;;11.95;7.47;;;;;;;7.49;94.14;101551.91;5095600;28;20070;-63
2022/04/26 05:12:26;;;;;;;15.07;7.95;;;;;;;7.47;93.85;101542.34;5095219;28;20027;-63
2022/04/26 05:14:51;;;;;;;11.93;7.50;;;;;;;7.52;94.40;101558.91;5095017;28;20024;-59
2022/04/26 05:17:17;;;;;;;13.48;7.32;;;;;;;7.54;94.20;101563.25;5095083;28;20106;-61
2022/04/26 05:19:42;;;;;;;12.57;7.43;;;;;;;7.56;93.51;101560.69;5095002;28;20032;-60
2022/04/26 05:22:09;;;;;;;12.07;7.43;;;;;;;7.50;93.44;101560.59;5095128;28;20082;-61
2022/04/26 05:24:59;;;;;;;12.90;7.80;;;;;;;7.50;93.50;101568.41;5094895;28;20458;-60
2022/04/26 05:27:30;;;;;;;12.02;7.25;;;;;;;7.51;93.95;101568.44;5094854;28;20035;-61
2022/04/26 05:29:56;;;;;;;14.35;7.72;;;;;;;7.57;94.04;101571.13;5077459;28;20409;-61
2022/04/26 05:32:30;;;;;;;11.25;7.72;;;;;;;7.59;93.82;101568.53;5094951;28;20024;-61
2022/04/26 05:34:58;;;;;;;11.45;7.50;;;;;;;7.59;93.63;101573.75;5095052;28;20086;-60
2022/04/26 05:37:23;;;;;;;10.27;7.63;;;;;;;7.66;94.13;101572.94;5094910;28;20063;-63
2022/04/26 05:39:48;;;;;;;11.45;7.63;;;;;;;7.66;93.76;101572.94;5095318;28;20056;-60
2022/04/26 05:42:14;;;;;;;12.10;8.27;;;;;;;7.73;93.43;101584.28;5094434;28;20032;-61
2022/04/26 05:44:39;;;;;;;11.95;8.23;;;;;;;7.71;93.24;101575.59;5095221;28;20099;-61
2022/04/26 05:47:07;;;;;;;12.88;8.20;;;;;;;7.74;93.02;101579.09;5094757;28;20028;-59
2022/04/26 05:49:34;;;;;;;16.35;8.38;;;;;;;7.82;93.09;101587.84;5094849;28;20119;-60
2022/04/26 05:51:59;;;;;;;12.85;8.38;;;;;;;7.85;92.45;101584.41;5094805;28;20089;-60
2022/04/26 05:54:24;;;;;;;12.52;8.10;;;;;;;7.80;93.22;101586.97;5094547;28;20028;-61
2022/04/26 05:56:52;;;;;;;13.63;8.52;;;;;;;7.88;93.23;101585.31;5095025;28;20085;-59
2022/04/26 05:59:18;;;;;;;12.90;8.93;;;;;;;7.95;93.01;101581.03;5094867;28;20032;-61
2022/04/26 06:01:43;;;;;;;13.65;7.68;;;;;;;8.07;92.38;101594.19;5094575;28;20343;-60
2022/04/26 06:04:08;;;;;;;12.80;9.15;;;;;;;8.07;92.30;101594.19;5098177;28;20028;-59
2022/04/26 06:06:35;;;;;;;14.00;8.65;;;;;;;8.11;92.55;101593.34;5098530;28;20032;-61
2022/04/26 06:09:00;;;;;;;15.45;7.90;;;;;;;8.19;92.30;101599.47;5098880;28;20111;-60
2022/04/26 06:11:26;;;;;;;14.07;8.70;;;;;;;8.17;92.14;101595.13;5098559;28;20505;-62
2022/04/26 06:13:51;;;;;;;12.00;8.43;;;;;;;8.22;92.22;101602.13;5098443;28;20028;-61
2022/04/26 06:16:16;;;;;;;12.73;8.77;;;;;;;8.32;90.73;101600.47;5098714;28;20024;-61
2022/04/26 06:18:42;;;;;;;15.10;9.15;;;;;;;8.21;91.86;101597.78;5098868;28;20046;-65
2022/04/26 06:21:08;;;;;;;15.18;9.00;;;;;;;8.36;91.52;101599.66;5098133;28;20032;-62
2022/04/26 06:23:33;;;;;;;16.10;9.73;;;;;;;8.42;91.85;101602.31;5097939;28;20093;-61
2022/04/26 06:25:59;;;;;;;13.82;9.48;;;;;;;8.59;91.60;101600.72;5098222;28;20107;-62
2022/04/26 06:28:26;;;;;;;15.85;9.50;;;;;;;8.75;91.29;101606.03;5098203;28;20073;-63
2022/04/26 06:30:51;;;;;;;16.05;9.45;;;;;;;8.87;90.28;101608.69;5098149;28;20039;-62
2022/04/26 06:33:17;;;;;;;14.43;9.27;;;;;;;8.88;90.24;101613.94;5097839;28;20024;-62
2022/04/26 06:35:43;;;;;;;14.55;9.35;;;;;;;8.86;89.66;101622.59;5097857;28;20093;-62
2022/04/26 06:38:08;;;;;;;16.58;9.93;;;;;;;8.78;90.22;101627.78;5098118;28;20032;-63
2022/04/26 06:40:33;;;;;;;12.63;9.82;;;;;;;8.85;90.28;101626.06;5098134;28;20343;-64
2022/04/26 06:42:58;;;;;;;14.75;9.77;;;;;;;8.89;90.54;101614.81;5079738;28;20017;-62
2022/04/26 06:45:24;;;;;;;16.58;10.27;;;;;;;8.92;89.57;101620.91;5097963;28;20031;-61
2022/04/26 06:47:49;;;;;;;14.18;10.15;;;;;;;8.85;90.10;101619.13;5097985;28;20427;-61
2022/04/26 06:50:15;;;;;;;15.10;10.18;;;;;;;8.90;88.58;101637.44;5097785;28;20031;-63
2022/04/26 06:52:40;;;;;;;14.38;10.40;;;;;;;8.63;90.02;101607.69;5097535;28;20043;-63
2022/04/26 06:55:06;;;;;;;16.50;10.88;;;;;;;8.78;89.59;101632.13;5097541;28;20028;-62
2022/04/26 06:57:31;;;;;;;15.25;11.10;;;;;;;8.85;89.70;101636.50;5097440;28;20085;-63
2022/04/26 06:59:57;;;;;;;15.32;11.50;;;;;;;8.88;89.25;101639.16;5097274;28;20024;-61
2022/04/26 07:02:22;;;;;;;17.00;11.23;;;;;;;8.94;89.79;101634.84;5097688;28;20028;-62
2022/04/26 07:04:47;;;;;;;19.05;11.13;;;;;;;8.99;89.00;101634.88;5097828;28;20111;-61
2022/04/26 07:07:12;;;;;;;18.98;11.73;;;;;;;9.03;87.75;101634.03;5097397;28;20047;-62
2022/04/26 07:09:38;;;;;;;17.63;11.68;;;;;;;9.11;88.77;101641.91;5097257;28;20089;-63
2022/04/26 07:12:04;;;;;;;16.38;11.40;;;;;;;9.19;88.63;101634.97;5097395;28;20028;-63
2022/04/26 07:14:29;;;;;;;18.15;12.13;;;;;;;9.25;88.11;101629.78;5097365;28;20051;-63
2022/04/26 07:16:55;;;;;;;16.08;12.20;;;;;;;9.29;87.28;101634.16;5097100;28;20024;-62
2022/04/26 07:19:22;;;;;;;17.35;11.88;;;;;;;9.35;87.48;101637.66;5097388;28;20080;-63
2022/04/26 07:21:48;;;;;;;22.08;11.43;;;;;;;9.39;86.67;101638.56;5097018;28;20020;-64
2022/04/26 07:24:13;;;;;;;16.88;11.48;;;;;;;9.34;86.04;101635.06;5097589;28;20044;-64
2022/04/26 07:26:38;;;;;;;17.95;11.75;;;;;;;9.30;86.04;101639.41;5096992;28;20024;-63
2022/04/26 07:29:05;;;;;;;15.10;11.15;;;;;;;9.32;85.88;101657.69;5097195;28;20031;-62
2022/04/26 07:31:30;;;;;;;16.48;10.85;;;;;;;9.29;85.46;101649.84;5096812;28;20514;-63
2022/04/26 07:36:39;;;;;;;15.68;10.55;;;;;;;9.41;83.08;101652.50;5096626;28;20108;-62
2022/04/26 07:39:05;;;;;;;14.68;10.13;;;;;;;9.47;83.05;101654.28;5096846;28;20373;-62
2022/04/26 07:41:32;;;;;;;15.40;9.98;;;;;;;9.56;82.74;101654.28;5096652;28;20028;-62
2022/04/26 07:43:58;;;;;;;17.23;10.70;;;;;;;9.70;82.43;101652.59;5097067;28;20028;-64
2022/04/26 07:46:23;;;;;;;16.30;10.38;;;;;;;9.81;81.71;101655.25;5097055;28;20028;-64
2022/04/26 07:48:48;;;;;;;16.33;10.93;;;;;;;9.89;81.00;101657.00;5096951;28;20039;-62
2022/04/26 07:51:14;;;;;;;14.43;9.40;;;;;;;10.07;80.24;101657.03;5096353;28;20031;-62
2022/04/26 07:53:39;;;;;;;14.90;10.40;;;;;;;10.19;80.17;101671.06;5096988;28;20024;-63
2022/04/26 07:56:05;;;;;;;12.13;9.23;;;;;;;10.22;78.56;101674.53;5096417;28;20023;-63
2022/04/26 07:58:32;;;;;;;14.82;10.07;;;;;;;10.21;78.58;101680.66;5096483;28;20053;-62
2022/04/26 08:00:57;;;;;;;14.40;9.70;;;;;;;10.19;77.64;101671.94;5096683;28;20039;-63
2022/04/26 08:03:23;;;;;;;16.90;10.45;;;;;;;10.21;78.38;101674.56;5096235;28;20024;-64
2022/04/26 08:05:49;;;;;;;14.35;9.57;;;;;;;10.25;78.23;101671.91;5096125;28;20043;-63
2022/04/26 08:08:14;;;;;;;14.02;9.82;;;;;;;10.43;78.97;101685.03;5096137;28;20027;-62
2022/04/26 08:10:40;;;;;;;15.13;10.13;;;;;;;10.61;77.25;101693.75;5096524;28;20039;-63
2022/04/26 08:13:05;;;;;;;14.45;9.57;;;;;;;10.63;78.04;101692.00;5096166;28;20118;-63
2022/04/26 08:15:30;;;;;;;13.05;9.35;;;;;;;10.70;77.08;101689.41;5096282;28;20047;-63
2022/04/26 08:17:56;;;;;;;19.13;9.50;;;;;;;10.77;76.49;101692.88;5096066;28;20032;-60
2022/04/26 08:20:22;;;;;;;13.15;9.20;;;;;;;10.89;75.60;101699.88;5095756;28;20052;-62
2022/04/26 08:22:48;;;;;;;14.15;9.38;;;;;;;10.86;76.25;101707.72;5092469;28;20043;-62
2022/04/26 08:27:57;;;;;;;13.80;8.52;;;;;;;10.71;74.88;101706.84;5095413;28;20050;-62
2022/04/26 08:30:22;;;;;;;14.60;8.50;;;;;;;10.63;73.94;101681.53;5095771;28;20367;-60
2022/04/26 08:32:48;;;;;;;14.07;8.63;;;;;;;10.80;75.83;101717.31;5095559;28;20063;-62
2022/04/26 08:35:18;;;;;;;14.75;8.95;;;;;;;10.93;74.88;101718.16;5094794;28;20047;-62
2022/04/26 08:37:44;;;;;;;18.13;9.75;;;;;;;11.08;74.91;101720.75;5096145;28;20042;-64
2022/04/26 08:40:10;;;;;;;13.18;8.68;;;;;;;11.24;75.12;101720.75;5095958;28;20024;-63
2022/04/26 08:42:38;;;;;;;16.70;8.98;;;;;;;11.28;73.74;101730.34;5092494;28;20032;-64
2022/04/26 08:45:06;;;;;;;14.93;8.65;;;;;;;11.28;74.89;101725.97;5077660;28;20036;-62
2022/04/26 08:53:01;;;;;;;14.85;8.52;;;;;;;11.38;72.99;101734.69;5095577;28;20524;-62
2022/04/26 08:55:27;;;;;;;11.35;8.13;;;;;;;11.31;73.34;101727.72;5095418;28;20031;-62
2022/04/26 08:57:52;;;;;;;11.98;7.97;;;;;;;11.38;74.26;101732.09;5094631;28;20036;-62
2022/04/26 09:00:18;;;;;;;15.15;7.65;;;;;;;11.43;73.14;101732.91;5095128;28;20351;-63
2022/04/26 09:03:00;;;;;;;11.77;7.50;;;;;;;11.36;74.29;101731.22;5095040;28;20036;-62
2022/04/26 09:05:25;;;;;;;15.60;7.70;;;;;;;11.34;72.37;101728.59;5095303;28;20363;-61
2022/04/26 09:07:51;;;;;;;15.75;7.43;;;;;;;11.30;73.21;101721.59;5092309;28;20051;-63
2022/04/26 09:10:18;;;;;;;12.95;7.10;;;;;;;11.49;72.52;101733.78;5094956;28;20040;-62
2022/04/26 09:13:04;;;;;;;10.73;6.75;;;;;;;11.71;72.07;101734.59;5095196;28;20047;-63
2022/04/26 09:15:41;;;;;;;10.05;6.70;;;;;;;11.93;70.34;101732.78;5095121;28;20130;-63
2022/04/26 09:18:20;;;;;;;11.95;6.43;;;;;;;11.88;70.11;101726.69;5077271;28;20090;-62
2022/04/26 09:20:51;;;;;;;11.38;6.47;;;;;;;11.93;71.53;101727.56;5094982;28;20032;-62
2022/04/26 09:23:28;;;;;;;10.60;6.78;;;;;;;12.24;71.14;101725.63;5094937;28;20067;-63
2022/04/26 09:26:08;;;;;;;11.70;6.47;;;;;;;12.48;69.14;101729.81;5077362;28;20337;-63
2022/04/26 09:28:38;;;;;;;11.70;6.30;;;;;;;12.45;67.93;101729.88;5094985;28;20078;-62
2022/04/26 09:31:24;;;;;;;12.98;6.57;;;;;;;12.60;67.85;101735.00;5095045;28;20036;-62
2022/04/26 09:33:56;;;;;;;8.77;5.80;;;;;;;12.60;65.66;101735.00;5094810;28;20035;-62
2022/04/26 09:36:31;;;;;;;12.75;6.00;;;;;;;12.45;64.53;101749.13;5095109;28;20164;-63
2022/04/26 09:38:58;;;;;;;11.50;6.03;;;;;;;12.44;66.26;101738.63;5097423;28;20028;-63
2022/04/26 09:41:25;;;;;;;9.82;5.95;;;;;;;12.54;64.15;101750.78;5099367;28;20032;-63
2022/04/26 09:44:08;;;;;;;7.88;5.57;;;;;;;12.55;64.41;101752.53;5098866;28;20028;-62
2022/04/26 09:46:42;;;;;;;10.02;5.45;;;;;;;12.66;64.45;101757.69;5098991;28;20024;-62
2022/04/26 09:49:14;;;;;;;7.13;5.20;;;;;;;12.82;64.41;101767.19;5099109;28;20111;-62
2022/04/26 09:51:41;;;;;;;8.70;5.22;;;;;;;12.98;63.05;101760.09;5098032;27;20036;-63
2022/04/26 09:54:07;;;;;;;10.07;5.07;;;;;;;13.19;63.18;101755.53;5113410;28;20031;-62
2022/04/26 09:56:33;;;;;;;9.02;4.88;;;;;;;13.29;59.81;101758.09;5112049;27;20043;-63
2022/04/26 09:59:00;;;;;;;11.48;4.72;;;;;;;13.35;59.27;101764.13;5116015;28;20055;-63
2022/04/26 10:01:41;;;;;;;7.88;4.90;;;;;;;13.51;61.16;101765.72;5116268;28;20067;-63
2022/04/26 10:04:12;;;;;;;8.45;5.18;;;;;;;13.62;58.22;101772.63;5119067;28;20054;-62
2022/04/26 10:06:41;;;;;;;7.93;5.00;;;;;;;13.49;57.86;101757.00;5106358;27;20027;-63
2022/04/26 10:09:08;;;;;;;7.85;5.63;;;;;;;13.69;61.13;101776.91;5129223;27;20062;-63
2022/04/26 10:11:34;;;;;;;10.18;5.30;;;;;;;13.93;60.91;101745.06;5112629;28;20055;-62
2022/04/26 10:14:02;;;;;;;10.70;5.10;;;;;;;14.13;59.08;101772.00;5103836;28;20209;-62
2022/04/26 10:16:28;;;;;;;12.10;5.10;;;;;;;14.28;58.76;101749.84;5114022;27;20039;-63
2022/04/26 10:19:06;;;;;;;10.57;5.30;;;;;;;14.56;58.41;101771.41;5118594;28;20028;-63
2022/04/26 10:21:41;;;;;;;10.75;5.40;;;;;;;14.35;57.66;101772.59;5118589;28;20031;-64
2022/04/26 10:24:23;;;;;;;8.52;5.10;;;;;;;14.23;57.14;101784.13;5118504;28;20056;-63
2022/04/26 10:26:51;;;;;;;7.55;5.00;;;;;;;13.95;57.40;101790.66;5118387;28;20034;-62
2022/04/26 10:29:19;;;;;;;7.55;5.05;;;;;;;14.11;57.71;101786.06;5118135;28;20028;-63
2022/04/26 10:31:47;;;;;;;10.50;5.55;;;;;;;14.39;58.12;101779.53;5118167;28;20054;-63
2022/04/26 10:34:26;;;;;;;8.82;4.95;;;;;;;14.61;56.72;101774.84;5118570;28;20089;-62
2022/04/26 10:36:59;;;;;;;8.38;5.18;;;;;;;14.57;55.21;101778.41;5118575;28;20445;-62
2022/04/26 10:39:59;;;;;;;7.35;5.07;;;;;;;14.49;56.70;101783.81;5118243;28;20027;-63
2022/04/26 10:42:27;;;;;;;9.80;5.32;;;;;;;14.26;54.15;101799.91;5087541;28;20051;-63
2022/04/26 10:45:05;;;;;;;7.95;5.00;;;;;;;14.06;55.33;101804.53;5118073;28;20469;-62
2022/04/26 10:47:30;;;;;;;7.97;5.18;;;;;;;13.78;55.23;101798.75;5114726;28;20043;-62
2022/04/26 10:49:58;;;;;;;9.35;5.00;;;;;;;13.79;54.19;101797.00;5117622;28;20042;-62
2022/04/26 10:52:24;;;;;;;8.23;4.95;;;;;;;13.94;54.81;101800.31;5118043;28;20028;-63
2022/04/26 10:54:55;;;;;;;7.70;4.93;;;;;;;14.09;51.81;101806.25;5118087;28;20041;-63
2022/04/26 10:57:27;;;;;;;10.13;4.93;;;;;;;14.07;53.13;101808.03;5117899;28;20027;-62
2022/04/26 10:59:59;;;;;;;6.47;4.40;;;;;;;14.13;52.26;101798.31;5118356;28;20093;-62
2022/04/26 11:02:27;;;;;;;8.00;4.75;;;;;;;14.14;51.01;101799.19;5115279;28;20081;-64
2022/04/26 11:05:00;;;;;;;8.18;4.90;;;;;;;14.34;52.63;101791.03;5117858;28;20042;-64
2022/04/26 11:07:27;;;;;;;5.38;4.30;;;;;;;14.38;51.30;101792.72;5117941;28;20087;-63
2022/04/26 11:09:54;;;;;;;6.30;4.50;;;;;;;14.22;49.67;101805.22;5117533;28;20047;-63
2022/04/26 11:12:25;;;;;;;8.52;4.90;;;;;;;14.15;50.08;101801.81;5117906;28;20092;-63
2022/04/26 11:14:52;;;;;;;8.02;4.50;;;;;;;14.17;50.01;101792.13;5117698;28;20031;-64
2022/04/26 11:17:19;;;;;;;7.25;4.95;;;;;;;14.24;50.28;101795.53;5117984;28;20104;-62
2022/04/26 11:19:56;;;;;;;7.07;4.90;;;;;;;14.22;50.68;101798.19;5113962;28;20425;-65
2022/04/26 11:22:23;;;;;;;7.68;4.90;;;;;;;14.28;52.30;101789.34;5117300;28;20038;-62
2022/04/26 11:30:42;;;;;;;9.23;5.40;;;;;;;14.39;50.82;101797.09;5117619;28;20050;-61
2022/04/26 11:33:19;;;;;;;8.02;5.43;;;;;;;14.43;50.57;101785.66;5117233;28;20035;-61
2022/04/26 11:35:51;;;;;;;7.07;5.10;;;;;;;14.44;49.67;101800.56;5117562;28;20126;-60
2022/04/26 11:38:17;;;;;;;7.85;5.50;;;;;;;14.42;50.34;101787.41;5117444;28;20040;-62
2022/04/26 11:40:54;;;;;;;5.75;4.78;;;;;;;14.63;51.26;101799.41;5117023;28;20054;-61
2022/04/26 11:43:24;;;;;;;8.23;5.43;;;;;;;14.46;48.32;101799.66;5117441;28;20036;-62
2022/04/26 11:45:52;;;;;;;6.65;4.70;;;;;;;14.33;48.22;101799.81;5117040;28;20486;-62
2022/04/26 11:48:25;;;;;;;7.13;5.10;;;;;;;14.29;48.52;101807.75;5117122;28;20042;-62
2022/04/26 11:50:52;;;;;;;8.15;4.95;;;;;;;14.47;50.26;101811.94;5116966;28;20058;-62
2022/04/26 11:53:20;;;;;;;10.00;5.47;;;;;;;14.65;49.17;101810.81;5117060;28;20034;-63
2022/04/26 11:55:51;;;;;;;8.90;5.20;;;;;;;14.70;46.92;101818.66;5117019;28;20031;-62
2022/04/26 11:58:21;;;;;;;7.53;5.43;;;;;;;14.71;47.07;101805.44;5117034;28;20044;-53
2022/04/26 12:01:02;;;;;;;6.38;5.10;;;;;;;14.68;46.47;101817.78;5116897;28;20023;-63
2022/04/26 12:03:44;;;;;;;8.23;5.35;;;;;;;14.50;46.05;101817.16;5115924;28;20070;-62
2022/04/26 12:06:11;;;;;;;7.95;5.35;;;;;;;14.38;46.71;101819.03;5116570;28;20434;-61
2022/04/26 12:08:58;;;;;;;7.50;5.53;;;;;;;14.56;46.98;101813.56;5116989;28;20315;-61
2022/04/26 12:11:26;;;;;;;7.38;5.28;;;;;;;14.44;46.64;101813.75;5116755;28;20032;-62
2022/04/26 12:14:02;;;;;;;8.27;4.80;;;;;;;14.64;46.78;101814.34;5116754;28;20031;-62
2022/04/26 12:16:28;;;;;;;8.30;4.65;;;;;;;14.77;45.11;101826.41;5116582;28;20031;-61
2022/04/26 12:18:56;;;;;;;6.35;4.10;;;;;;;14.91;44.52;101813.91;5116422;28;20034;-61
2022/04/26 12:21:24;;;;;;;6.68;4.60;;;;;;;14.76;44.36;101823.81;5116454;28;20055;-61
2022/04/26 12:24:10;;;;;;;6.88;4.75;;;;;;;14.53;45.96;101817.13;5116239;28;20066;-62
2022/04/26 12:26:35;;;;;;;6.15;4.63;;;;;;;14.48;44.76;101813.69;5116832;28;20035;-63
2022/04/26 12:29:01;;;;;;;5.50;4.45;;;;;;;14.59;45.99;101814.38;5115955;28;20096;-61
2022/04/26 12:31:30;;;;;;;10.27;4.43;;;;;;;14.63;45.54;101810.81;5116210;28;20043;-61
2022/04/26 12:34:12;;;;;;;6.50;4.45;;;;;;;14.79;43.07;101823.75;5116339;28;20035;-62
2022/04/26 12:37:00;;;;;;;5.43;4.15;;;;;;;15.11;44.47;101807.44;5116134;28;20106;-57
2022/04/26 12:39:38;;;;;;;8.50;4.72;;;;;;;15.31;42.59;101821.16;5115279;28;20030;-62
2022/04/26 12:42:04;;;;;;;7.35;4.63;;;;;;;15.27;44.30;101814.19;5115863;28;20070;-62
2022/04/26 12:44:30;;;;;;;6.80;4.35;;;;;;;15.43;43.12;101823.56;5116100;28;20126;-62
2022/04/26 12:53:07;;;;;;;5.38;4.25;;;;;;;15.37;42.82;101810.50;5115738;28;20132;-62
2022/04/26 12:55:40;;;;;;;5.78;4.57;;;;;;;15.31;43.85;101815.88;5116295;28;20118;-63
2022/04/26 12:58:17;;;;;;;7.32;4.93;;;;;;;15.33;44.78;101819.38;5116233;28;20039;-61
2022/04/26 13:00:47;;;;;;;7.97;4.90;;;;;;;15.43;45.49;101814.78;5115824;28;20019;-62
2022/04/26 13:03:17;;;;;;;7.80;5.03;;;;;;;15.56;45.91;101819.00;5115819;28;20031;-62
2022/04/26 13:05:50;;;;;;;8.82;5.63;;;;;;;15.70;45.24;101816.09;5115755;28;20070;-64
2022/04/26 13:08:18;;;;;;;10.30;5.25;;;;;;;15.75;45.39;101806.31;5110203;28;20040;-63
2022/04/26 13:10:46;;;;;;;8.73;5.53;;;;;;;15.83;44.78;101813.19;5111184;28;20027;-63
2022/04/26 13:13:13;;;;;;;6.70;5.35;;;;;;;15.75;44.80;101816.88;5098768;28;20040;-61
2022/04/26 13:15:41;;;;;;;7.05;5.35;;;;;;;15.66;44.93;101816.16;5095138;28;20067;-62
2022/04/26 13:18:07;;;;;;;8.30;5.80;;;;;;;15.68;45.23;101820.53;5095587;28;20046;-61
2022/04/26 13:20:32;;;;;;;8.85;5.72;;;;;;;15.61;44.37;101809.22;5099733;28;20414;-63
2022/04/26 13:22:58;;;;;;;8.57;5.70;;;;;;;15.25;44.53;101816.84;5109171;28;20138;-61
2022/04/26 13:25:24;;;;;;;6.35;5.30;;;;;;;14.84;45.65;101812.28;5093813;28;20111;-63
2022/04/26 13:27:49;;;;;;;8.48;5.35;;;;;;;14.69;47.11;101819.53;5093274;28;20044;-63
2022/04/26 13:30:16;;;;;;;7.82;5.20;;;;;;;14.69;48.49;101814.28;5088820;28;20032;-56
2022/04/26 13:32:42;;;;;;;7.75;5.30;;;;;;;14.75;48.05;101809.75;5082593;28;20090;-60
2022/04/26 13:35:08;;;;;;;8.52;5.45;;;;;;;15.03;46.71;101811.97;5073808;28;20028;-58
2022/04/26 13:37:34;;;;;;;7.00;4.78;;;;;;;14.98;47.45;101812.03;5074414;28;20036;-58
2022/04/26 13:40:01;;;;;;;8.77;5.03;;;;;;;14.91;47.29;101816.53;5074454;28;20028;-58
2022/04/26 13:42:27;;;;;;;8.60;5.30;;;;;;;14.76;46.71;101827.31;5074323;28;20024;-59
2022/04/26 13:44:54;;;;;;;11.23;5.20;;;;;;;14.61;47.37;101827.53;5074306;28;20436;-63
2022/04/26 13:47:20;;;;;;;6.35;4.68;;;;;;;14.56;48.49;101816.19;5074573;28;20341;-61
2022/04/26 13:49:45;;;;;;;7.43;4.78;;;;;;;14.54;47.51;101828.53;5074526;28;20043;-62
2022/04/26 13:52:10;;;;;;;6.40;4.50;;;;;;;14.54;48.29;101825.91;5094365;28;20027;-62
2022/04/26 13:54:37;;;;;;;7.88;4.57;;;;;;;14.49;48.60;101823.31;5094248;28;20437;-62
2022/04/26 13:57:05;;;;;;;9.73;5.47;;;;;;;14.52;47.64;101831.19;5089708;28;20040;-64
2022/04/26 13:59:30;;;;;;;9.05;4.70;;;;;;;14.41;47.38;101819.91;5083062;28;20031;-65
2022/04/26 14:01:56;;;;;;;6.13;4.70;;;;;;;14.60;47.48;101823.16;5097017;28;20032;-63
2022/04/26 14:04:21;;;;;;;8.13;5.03;;;;;;;14.60;47.81;101831.06;5114494;28;20110;-63
2022/04/26 14:06:47;;;;;;;8.43;4.75;;;;;;;14.73;48.52;101827.34;5114509;28;20035;-62
2022/04/26 14:09:13;;;;;;;6.85;4.50;;;;;;;14.90;46.62;101829.72;5114401;28;20479;-63
2022/04/26 14:11:39;;;;;;;6.22;4.75;;;;;;;15.07;46.30;101832.97;5114782;28;20423;-62
2022/04/26 14:22:16;;;;;;;5.75;3.90;;;;;;;15.27;44.79;101824.72;5114520;28;20070;-62
2022/04/26 14:24:42;;;;;;;6.22;4.18;;;;;;;15.23;43.90;101829.22;5128437;27;20055;-63
2022/04/26 14:27:07;;;;;;;6.05;4.05;;;;;;;15.15;43.37;101830.22;5138892;27;20423;-62
2022/04/26 14:29:33;;;;;;;4.85;3.58;;;;;;;15.14;43.40;101823.22;5138368;27;20442;-63
2022/04/26 14:31:59;;;;;;;7.50;3.88;;;;;;;15.23;44.55;101831.84;5139204;27;20148;-62
2022/04/26 14:34:24;;;;;;;6.03;3.90;;;;;;;15.26;43.37;101836.19;5138459;27;20062;-62
2022/04/26 14:36:50;;;;;;;7.55;4.00;;;;;;;15.33;43.45;101835.19;5138789;27;20046;-63
2022/04/26 14:39:15;;;;;;;6.95;4.15;;;;;;;15.31;42.63;101836.97;5138872;27;20035;-62
2022/04/26 14:41:44;;;;;;;6.18;4.30;;;;;;;15.11;43.73;101821.50;5138790;27;20033;-62
2022/04/26 14:44:09;;;;;;;5.07;4.10;;;;;;;15.14;43.90;101837.25;5138609;27;20038;-63
2022/04/26 14:46:35;;;;;;;6.65;4.55;;;;;;;14.97;43.88;101834.03;5138303;27;20035;-62
2022/04/26 14:49:00;;;;;;;7.03;4.05;;;;;;;14.91;43.73;101834.09;5138371;27;20059;-64
2022/04/26 14:51:26;;;;;;;7.75;4.50;;;;;;;14.88;44.39;101831.56;5138733;27;20114;-63
2022/04/26 14:53:51;;;;;;;5.68;4.10;;;;;;;14.95;44.81;101838.44;5138798;27;20102;-63
2022/04/26 14:56:17;;;;;;;7.20;4.90;;;;;;;14.95;44.79;101838.44;5138440;27;20027;-62
2022/04/26 14:58:42;;;;;;;6.82;4.40;;;;;;;14.83;44.57;101852.69;5138353;27;20039;-59
2022/04/26 15:01:07;;;;;;;12.55;4.63;;;;;;;14.80;44.82;101841.31;5138547;27;20042;-64
2022/04/26 15:03:33;;;;;;;5.53;3.75;;;;;;;14.74;44.66;101838.75;5114001;27;20055;-62
2022/04/26 15:05:59;;;;;;;5.30;3.95;;;;;;;14.79;45.03;101840.44;5097316;28;20108;-63
2022/04/26 15:11:09;;;;;;;8.43;4.38;;;;;;;14.74;45.43;101828.22;5096890;28;20047;-63
2022/04/26 15:19:05;;;;;;;20.60;5.80;;;;;;;14.84;43.98;101843.91;5125683;27;20081;-64
2022/04/26 15:21:30;;;;;;;7.13;4.53;;;;;;;14.90;43.97;101838.50;5137279;27;20510;-63
2022/04/26 15:23:55;;;;;;;10.85;4.40;;;;;;;14.88;44.30;101839.44;5137509;27;20050;-62
2022/04/26 15:26:22;;;;;;;6.05;3.53;;;;;;;14.90;42.41;101829.72;5116399;27;20489;-62
2022/04/26 15:28:47;;;;;;;7.20;4.05;;;;;;;14.92;43.32;101839.34;5105227;27;20042;-62
2022/04/26 15:31:17;;;;;;;50.40;7.70;;;;;;;14.89;41.98;101836.75;5101022;28;20114;-64
2022/04/26 15:33:43;;;;;;;4.82;3.67;;;;;;;14.79;41.67;101850.13;5105980;28;20043;-63
2022/04/26 15:36:09;;;;;;;6.65;3.75;;;;;;;14.82;43.33;101837.78;5086492;28;20043;-63
2022/04/26 15:38:34;;;;;;;4.50;3.38;;;;;;;14.90;41.46;101838.50;5104534;28;20028;-63
2022/04/26 15:41:05;;;;;;;18.33;4.53;;;;;;;14.83;42.19;101850.06;5106083;28;20062;-62
2022/04/26 15:43:34;;;;;;;5.50;3.85;;;;;;;14.74;42.47;101847.53;5104079;28;20443;-63